Pahrump, Nevada Weather observations

Data are for observation ending at time listed.
 Day   Time    Ave.   Ave.  Ave.  Vector   Max.   Stn.    Total    Solar   Ave.  
  of    of     Air    Rel.  Wind   Wind    Wind   Baro.  Precip.   Rad.    Soil  
Year   Day     Temp.  Hum.  Speed  Dir.    Gust   Pres.                    Temp. 
2015   (PST)    F      %     mph   deg.    mph     mb.     in.     W/m2     F   
------------------------------------------------------------------------------
 182   15:30   98.2    21    6.5   265     12.6   923.1    0.00       0    102.6
 182   15:40   98.4    21    4.5   277     15.8   922.9    0.00       1    102.3
 182   15:50   99.0    20    5.2   272     12.4   922.7    0.00       0    102.0
 182   16:00   98.7    21    3.7   258     11.5   922.6    0.00       0    101.8
 182   16:10   97.8    21    4.5   230     12.3   922.4    0.00      93    101.6
 182   16:20   97.8    21    3.5   242      8.3   922.3    0.00       2    101.3
 182   16:30   98.0    21    2.7   264      8.8   922.2    0.00       0    101.1
 182   16:40   98.1    21    4.3   276     11.2   922.0    0.00       0    100.9
 182   16:50   97.9    21    4.1   299      8.5   921.8    0.00       0    100.7
 182   17:00   97.7    21    3.5   266     11.9   921.7    0.00       0    100.5
 182   17:10   97.8    20    4.7   273     11.2   921.6    0.00       0    100.3
 182   17:20   97.3    21    3.0   294      8.6   921.6    0.00       0    100.1
 182   17:30   97.5    21    3.4   275      9.6   921.6    0.00       0    100.0
 182   17:40   97.4    21    3.2   271      9.3   921.6    0.00       0    99.8
 182   17:50   96.8    21    2.3   265      5.6   921.5    0.00       0    99.6
 182   18:00   96.9    21    3.1   277      7.5   921.6    0.00       0    99.5
 182   18:10   96.7    21    2.0   292      7.5   921.7    0.00       3    99.3
 182   18:20   96.1    22    3.4   276      7.5   921.7    0.00       0    99.1
 182   18:30   95.3    22    3.2   271      7.4   921.8    0.00       0    99.0
 182   18:40   94.8    22    3.8   268      8.3   921.8    0.00       0    98.8
 182   18:50   94.5    23    3.3   265      9.3   921.8    0.00       0    98.7
 182   19:00   94.0    23    2.4   247      5.3   921.9    0.00       0    98.5
 182   19:10   93.5    23    2.1   237      5.7   921.9    0.00       0    98.3
 182   19:20   93.2    24    1.7   226      3.7   922.0    0.00       0    98.2
 182   19:30   92.7    24    1.6   251      4.2   921.9    0.00       0    98.0
 182   19:40   92.2    24    1.8   229      4.4   922.1    0.00       0    97.8
 182   19:50   92.0    24    1.1   244      3.1   922.2    0.00       0    97.7
 182   20:00   91.8    24    1.9   225      4.7   922.3    0.00       0    97.5
 182   20:10   91.8    25    0.6   237      2.2   922.3    0.00       0    97.3
 182   20:20   91.6    25    1.2   217      3.3   922.3    0.00       0    97.2
 182   20:30   91.7    25    2.3   220      5.4   922.4    0.00       0    97.0
 182   20:40   91.4    24    2.4   200      4.4   922.3    0.00       0    96.9
 182   20:50   92.0    24    5.5   166      9.3   922.3    0.00       0    96.7
 182   21:00   91.8    24    5.1   166      8.3   922.3    0.00       0    96.6
 182   21:10   91.7    24    4.1   163      7.5   922.5    0.00       0    96.4
 182   21:20   91.5    24    4.2   154      7.6   922.7    0.00       0    96.3
 182   21:30   91.0    25    3.7   137      9.3   922.7    0.00       0    96.2
 182   21:40   90.6    25    6.3   134      9.2   922.6    0.00       0    96.0
 182   21:50   90.4    25    7.1   131     10.3   922.8    0.00       0    95.9
 182   22:00   90.5    25    9.2   134     13.4   922.9    0.00       0    95.8
 182   22:10   90.2    25    9.8   135     13.8   923.0    0.00       0    95.7
 182   22:20   90.1    25    9.8   133     13.5   922.9    0.00       0    95.6
 182   22:30   89.9    26    9.4   132     12.9   922.9    0.00       0    95.5
 182   22:40   89.7    26   10.6   135     14.6   923.1    0.00       0    95.4
 182   22:50   89.6    26    9.9   137     14.3   923.1    0.00       0    95.3
 182   23:00   89.4    27    8.6   140     13.2   923.1    0.00       0    95.2
 182   23:10   89.2    28    9.2   136     12.4   923.2    0.00       0    95.1
 182   23:20   89.0    28    8.3   140     13.2   923.0    0.00       0    95.0
 182   23:30   88.2    30    8.6   138     13.7   923.0    0.00       0    94.9
 182   23:40   87.7    31    7.7   136     11.0   922.8    0.00       0    94.9
 182   23:50   88.0    30    5.8   156      9.3   922.8    0.00       0    94.8
 183    0:00   88.6    29    5.5   172      8.7   922.8    0.00       0    94.7
 183    0:10   88.5    30    4.8   172      7.6   922.8    0.00       0    94.6
 183    0:20   88.4    30    4.6   175      7.3   922.7    0.00       0    94.5
 183    0:30   88.4    30    3.3   163      6.2   922.6    0.00       0    94.4
 183    0:40   88.3    29    3.1   141      4.4   922.4    0.00       0    94.3
 183    0:50   87.9    29    3.5   147      4.7   922.6    0.00       0    94.2
 183    1:00   87.6    31    5.2   179      8.5   922.6    0.00       0    94.1
 183    1:10   86.2    33    6.2   174      8.9   922.6    0.00       0    94.0
 183    1:20   86.1    32    6.7   167     10.7   922.7    0.00       0    93.9
 183    1:30   86.6    31    7.7   144     11.8   922.8    0.00       0    93.8
 183    1:40   86.8    31    9.3   141     14.2   923.0    0.00       0    93.7
 183    1:50   86.7    31    9.8   144     14.9   923.3    0.00       0    93.6
 183    2:00   86.9    31    9.2   152     14.3   923.6    0.00       0    93.5
 183    2:10   84.0    44    9.9   181     16.2   923.8    0.00       0    93.4
 183    2:20   83.0    42    6.9   175      9.6   923.6    0.00       0    93.3
 183    2:30   84.6    36    6.8   144     10.7   923.5    0.00       0    93.2
 183    2:40   85.3    34    8.6   149     11.9   923.8    0.00       0    93.1
 183    2:50   85.5    34   10.2   139     16.5   923.9    0.00       0    92.9
 183    3:00   84.8    34    4.7   122     10.9   923.3    0.00       0    92.8
 183    3:10   82.9    47    6.1    98     11.2   923.3    0.00       0    92.7
 183    3:20   79.3    53    5.2   197      9.9   923.1    0.00       0    92.5
 183    3:30   79.9    50    2.6   201      4.7   922.9    0.00       0    92.4
 183    3:40   80.5    49    3.2   334      6.6   922.6    0.00       0    92.2
 183    3:50   80.2    47    3.5   309     12.1   922.2    0.00       0    92.0
 183    4:00   81.4    43    4.3   309      9.3   922.2    0.00       0    91.8
 183    4:10   80.7    50    2.1   278      5.0   922.5    0.00       0    91.6
 183    4:20   79.2    54    1.0   272      3.1   922.8    0.00       0    91.4
 183    4:30   79.3    52    4.4   153      7.3   922.9    0.00       0    91.2
 183    4:40   80.3    51    5.6   176      9.3   923.1    0.00       0    91.1
 183    4:50   80.0    52    4.8   187      8.5   923.3    0.00       0    91.0
 183    5:00   79.8    54    5.2   178      8.0   923.4    0.00       0    90.8
 183    5:10   79.9    54    4.6   185      7.7   923.4    0.00       0    90.7
 183    5:20   80.6    52    3.9   174      5.9   923.5    0.00       0    90.6
 183    5:30   81.5    50    3.1   162      5.0   923.7    0.00       0    90.6
 183    5:40   82.3    48    2.4   193      5.6   923.8    0.00       0    90.5
 183    5:50   82.4    49    2.5   155      6.9   924.1    0.00       0    90.5
 183    6:00   83.0    47    2.8   187      7.5   924.2    0.00       0    90.4
 183    6:10   83.0    46    4.2   184      8.8   924.4    0.00       0    90.4
 183    6:20   81.7    52    5.6   181      7.7   924.5    0.00       0    90.4
 183    6:30   81.8    50    5.6   180      7.9   924.5    0.00       0    90.4
 183    6:40   82.3    47    4.9   179      7.0   924.4    0.00       0    90.4
 183    6:50   83.0    44    2.4   200      5.3   924.3    0.00       0    90.4
 183    7:00   83.4    43    2.3   206      5.7   924.5    0.00       0    90.4
 183    7:10   83.7    42    0.9   257      2.7   924.6    0.00       0    90.4
 183    7:20   83.6    45    1.6   268      3.6   924.6    0.00       0    90.4
 183    7:30   82.8    49    2.6   306      5.5   924.7    0.00       0    90.4
 183    7:40   82.9    50    2.9   312      6.6   924.6    0.00       0    90.4
 183    7:50   84.5    45    1.0   317      2.3   924.8    0.00       0    90.4
 183    8:00   85.3    46    2.5   332      5.5   924.9    0.00       0    90.4
 183    8:10   86.4    44    2.2   339      5.2   925.1    0.00       0    90.5
 183    8:20   89.5    38    1.8   345      4.9   925.4    0.00       0    90.7
 183    8:30   88.6    40    2.2    30      5.2   925.7    0.00       1    91.0
 183    8:40   88.6    39    1.7   301      5.0   925.8    0.00       0    91.3
 183    8:50   89.0    37    2.4   332      4.5   925.7    0.00       0    91.6
 183    9:00   89.4    36    1.9    32      4.3   925.7    0.00       1    91.9
 183    9:10   89.9    34    1.3    52      2.9   925.7    0.00       1    92.2
 183    9:20   90.0    33    1.6    16      6.6   925.7    0.00       0    92.4
 183    9:30   89.5    33    2.7   134      6.8   925.8    0.00       0    92.7
 183    9:40   90.7    32    1.2   264      3.2   925.7    0.00       0    93.0
 183    9:50   92.2    30    1.4   189      5.1   925.8    0.00       0    93.2
 183   10:00   91.0    32    2.0   336      4.0   925.8    0.00       0    93.5
 183   10:10   91.5    32    2.4   245      5.3   925.8    0.00       0    93.7
 183   10:20   93.0    30    1.6   239      5.8   925.8    0.00       0    94.0
 183   10:30   92.7    29    2.4   156      5.3   925.9    0.00       0    94.2
 183   10:40   93.5    29    2.6   342      6.2   925.9    0.00       0    94.5
 183   10:50   95.3    27    1.8    29      6.9   926.0    0.00       0    94.8
 183   11:00   95.0    27    2.6   125      6.5   926.1    0.00       0    95.1
 183   11:10   95.0    27    2.4   124      5.6   926.2    0.00       0    95.4
 183   11:20   95.9    27    1.7   312      4.6   926.2    0.00       0    95.8
 183   11:30   95.4    28    2.5   283      8.2   926.1    0.00       0    96.2
 183   11:40   94.6    29    4.6   306      9.6   926.0    0.00       0    96.5
 183   11:50   94.4    28    3.7   300      8.2   925.8    0.00       0    96.8
 183   12:00   96.6    26    2.0   277      7.7   925.7    0.00       0    97.1
 183   12:10   96.9    26    4.7   308      8.3   925.6    0.00       0    97.4
 183   12:20   96.0    27    2.1    50      5.1   925.6    0.00       0    97.6
 183   12:30   97.1    26    2.2   337      5.5   925.5    0.00       0    98.0
 183   12:40   99.2    24    0.8    90      3.1   925.4    0.00       0    98.3
 183   12:50   99.0    24    1.8    61      6.6   925.5    0.00       0    98.7
 183   13:00   98.2    25    3.7   147      7.2   925.4    0.00       0    99.2
 183   13:10   99.4    24    2.1   318      4.6   925.3    0.00       8    99.6
 183   13:20  100.5    24    4.4   302     11.0   925.2    0.00       0    100.1
 183   13:30   99.6    24    5.7   329     11.6   925.1    0.00       0    100.5
 183   13:40   99.4    24    4.0   359      8.5   925.0    0.00       0    100.8
 183   13:50   99.5    23    2.7   101      7.8   924.9    0.00       0    101.1
 183   14:00   99.8    23    3.2   122      6.6   924.6    0.00       0    101.3
 183   14:10   99.6    23    4.6   176      8.5   924.4    0.00       0    101.4
 183   14:20   98.8    23    3.6   154      6.9   924.2    0.00       0    101.6
 183   14:30   99.6    23    2.2   114      5.7   924.0    0.00       0    101.7
 183   14:40  100.8    22    4.6   101      9.1   923.9    0.00       0    101.7
 183   14:50  100.3    22    3.5   166      9.0   923.7    0.00       3    101.7
 183   15:00  100.5    22    3.1   134      8.0   923.5    0.00       4    101.6
 183   15:10  100.9    21    3.1    89      5.8   923.2    0.00       0    101.5
 183   15:20  101.2    21    1.9   125      6.3   923.0    0.00       0    101.4

Return to Pahrump, Nevada graphs page.


Western Regional Climate Center,wrcc@dri.edu